PWSweather.com
Personal Weather Stations
Station Observations
BANEKERE1
AntwerpenBE

AntwerpenBE

Lat: 51.2809101, Lon: 4.4202713

Elevation: 40

Station Type:

http://www.akker.be

Latest ConditionsUpdated 4:20:02 AM GMT+01:01 Saturday, Oct 25, 2014
Currently Today's Max Today's Min Today's Average
Temperature 55.0°F12.8°C 55.0°F12.8°C 53.9°F12.2°C 54.5°F12.5°C
Dew Point 53.6°F12.0°C 53.6°F12.0°C 52.2°F11.2°C 52.8°F11.6°C
Winds 5.8 mph NNE9.3 kmh NNE 8.1 mph N13.0 kmh N - 5.0 mph 8.0 kmh
Wind Gusts 9.2 mph14.8 kmh 12.7 mph20.4 kmh - -
Humidity 95% 95% 94% 94%
Pressure 30.03 in1016.9 mb 30.03 in1016.9 mb 30.03 in1016.9 mb -
Hour Temp Dew Point Humidity Winds Wind Gusts Pressure Precip Precip Rate Daily Precip Total
04:20 AM 55.0°F12.8°C 53.6°F12.0°C 95% 5.8 mph NNE9.3 kmh NNE 9.2 mph14.8 kmh 30.03 in1016.9 mb 0.00 in0.0 mm 0.00 in/hr0.0 mm/hr 0.00 in0.0 mm
04:10 AM 55.0°F12.8°C 53.6°F12.0°C 95% 4.6 mph N7.4 kmh N 8.1 mph13.0 kmh 30.03 in1016.9 mb 0.00 in0.0 mm 0.00 in/hr0.0 mm/hr 0.00 in0.0 mm
04:00 AM 54.9°F12.7°C 53.5°F11.9°C 95% 5.8 mph NNW9.3 kmh NNW 10.4 mph16.7 kmh 30.03 in1016.9 mb 0.00 in0.0 mm 0.00 in/hr0.0 mm/hr 0.00 in0.0 mm
03:50 AM 54.9°F12.7°C 53.2°F11.8°C 94% 8.1 mph N13.0 kmh N 9.2 mph14.8 kmh 30.03 in1016.9 mb 0.00 in0.0 mm 0.00 in/hr0.0 mm/hr 0.00 in0.0 mm
03:40 AM 54.9°F12.7°C 53.2°F11.8°C 94% 3.5 mph NNW5.6 kmh NNW 4.6 mph7.4 kmh 30.03 in1016.9 mb 0.00 in0.0 mm 0.00 in/hr0.0 mm/hr 0.00 in0.0 mm
03:30 AM 54.8°F12.7°C 53.1°F11.7°C 94% 2.3 mph N3.7 kmh N 5.8 mph9.3 kmh 30.03 in1016.9 mb 0.00 in0.0 mm 0.00 in/hr0.0 mm/hr 0.00 in0.0 mm
03:20 AM 54.8°F12.7°C 53.1°F11.7°C 94% 4.6 mph SW7.4 kmh SW 6.9 mph11.1 kmh 30.03 in1016.9 mb 0.00 in0.0 mm 0.00 in/hr0.0 mm/hr 0.00 in0.0 mm
03:10 AM 54.8°F12.7°C 53.1°F11.7°C 94% 2.3 mph N3.7 kmh N 9.2 mph14.8 kmh 30.03 in1016.9 mb 0.00 in0.0 mm 0.00 in/hr0.0 mm/hr 0.00 in0.0 mm
03:00 AM 54.8°F12.7°C 53.1°F11.7°C 94% 4.6 mph N7.4 kmh N 11.5 mph18.5 kmh 30.03 in1016.9 mb 0.00 in0.0 mm 0.00 in/hr0.0 mm/hr 0.00 in0.0 mm
02:50 AM 54.7°F12.6°C 53.0°F11.7°C 94% 3.5 mph S5.6 kmh S 4.6 mph7.4 kmh 30.03 in1016.9 mb 0.00 in0.0 mm 0.00 in/hr0.0 mm/hr 0.00 in0.0 mm
02:40 AM 54.6°F12.6°C 52.9°F11.6°C 94% 4.6 mph N7.4 kmh N 10.4 mph16.7 kmh 30.03 in1016.9 mb 0.00 in0.0 mm 0.00 in/hr0.0 mm/hr 0.00 in0.0 mm
02:30 AM 54.6°F12.6°C 52.9°F11.6°C 94% 3.5 mph 5.6 kmh 5.8 mph9.3 kmh 30.03 in1016.9 mb 0.00 in0.0 mm 0.00 in/hr0.0 mm/hr 0.00 in0.0 mm
02:20 AM 54.5°F12.5°C 52.8°F11.6°C 94% 4.6 mph N7.4 kmh N 9.2 mph14.8 kmh 30.03 in1016.9 mb 0.00 in0.0 mm 0.00 in/hr0.0 mm/hr 0.00 in0.0 mm
02:10 AM 54.5°F12.5°C 52.8°F11.6°C 94% 3.5 mph N5.6 kmh N 9.2 mph14.8 kmh 30.03 in1016.9 mb 0.00 in0.0 mm 0.00 in/hr0.0 mm/hr 0.00 in0.0 mm
02:00 AM 54.4°F12.4°C 52.7°F11.5°C 94% 5.8 mph N9.3 kmh N 6.9 mph11.1 kmh 30.03 in1016.9 mb 0.00 in0.0 mm 0.00 in/hr0.0 mm/hr 0.00 in0.0 mm
01:50 AM 54.4°F12.4°C 52.7°F11.5°C 94% 5.8 mph N9.3 kmh N 9.2 mph14.8 kmh 30.03 in1016.9 mb 0.00 in0.0 mm 0.00 in/hr0.0 mm/hr 0.00 in0.0 mm
01:40 AM 54.4°F12.4°C 52.7°F11.5°C 94% 5.8 mph N9.3 kmh N 6.9 mph11.1 kmh 30.03 in1016.9 mb 0.00 in0.0 mm 0.00 in/hr0.0 mm/hr 0.00 in0.0 mm
01:30 AM 54.3°F12.4°C 52.6°F11.4°C 94% 3.5 mph SSE5.6 kmh SSE 6.9 mph11.1 kmh 30.03 in1016.9 mb 0.00 in0.0 mm 0.00 in/hr0.0 mm/hr 0.00 in0.0 mm
01:20 AM 54.3°F12.4°C 52.6°F11.4°C 94% 6.9 mph NW11.1 kmh NW 9.2 mph14.8 kmh 30.03 in1016.9 mb 0.00 in0.0 mm 0.00 in/hr0.0 mm/hr 0.00 in0.0 mm
01:10 AM 54.2°F12.3°C 52.5°F11.4°C 94% 4.6 mph NW7.4 kmh NW 6.9 mph11.1 kmh 30.03 in1016.9 mb 0.00 in0.0 mm 0.00 in/hr0.0 mm/hr 0.00 in0.0 mm
01:00 AM 54.2°F12.3°C 52.5°F11.4°C 94% 5.8 mph N9.3 kmh N 9.2 mph14.8 kmh 30.03 in1016.9 mb 0.00 in0.0 mm 0.00 in/hr0.0 mm/hr 0.00 in0.0 mm
12:50 AM 54.1°F12.3°C 52.4°F11.3°C 94% 8.1 mph N13.0 kmh N 12.7 mph20.4 kmh 30.03 in1016.9 mb 0.00 in0.0 mm 0.00 in/hr0.0 mm/hr 0.00 in0.0 mm
12:40 AM 54.1°F12.3°C 52.4°F11.3°C 94% 5.8 mph N9.3 kmh N 6.9 mph11.1 kmh 30.03 in1016.9 mb 0.00 in0.0 mm 0.00 in/hr0.0 mm/hr 0.00 in0.0 mm
12:30 AM 54.1°F12.3°C 52.4°F11.3°C 94% 5.8 mph SSW9.3 kmh SSW 10.4 mph16.7 kmh 30.03 in1016.9 mb 0.00 in0.0 mm 0.00 in/hr0.0 mm/hr 0.00 in0.0 mm
12:20 AM 54.1°F12.3°C 52.4°F11.3°C 94% 2.3 mph N3.7 kmh N 5.8 mph9.3 kmh 30.03 in1016.9 mb 0.00 in0.0 mm 0.00 in/hr0.0 mm/hr 0.00 in0.0 mm
12:10 AM 54.0°F12.2°C 52.3°F11.3°C 94% 8.1 mph N13.0 kmh N 12.7 mph20.4 kmh 30.03 in1016.9 mb 0.00 in0.0 mm 0.00 in/hr0.0 mm/hr 0.00 in0.0 mm
12:00 AM 53.9°F12.2°C 52.2°F11.2°C 94% 4.6 mph NNE7.4 kmh NNE 6.9 mph11.1 kmh 30.03 in1016.9 mb 0.00 in0.0 mm 0.00 in/hr0.0 mm/hr 0.00 in0.0 mm